Terminal Aerodrome Forecast
Issued by NWS

Home | Current Version | Previous Version | Graphics & Text | Print | Product List | Glossary On
Versions: 1 2 3 4 5 6 7 8 9 10 11 12 13 14 15 16 17 18 19 20 21
000
FTUS43 KLSX 250200 AAA
TAFSUS
TAF AMD
KSUS 250259Z 2503/2524 VRB04KT P6SM SKC
     FM250500 VRB02KT P6SM SCT200
     FM251700 10005KT P6SM OVC080=

USA.gov is the U.S. government's official web portal to all federal, state and local government web resources and services.